createdAt,value
2016-08-21T00:00:29.143Z,0
2016-08-21T00:01:29.098Z,0
2016-08-21T00:02:29.783Z,0
2016-08-21T00:03:29.034Z,0
2016-08-21T00:04:29.007Z,0
2016-08-21T00:05:27.577Z,0
2016-08-21T00:06:28.934Z,0
2016-08-21T00:07:29.599Z,0
2016-08-21T00:08:28.170Z,0
2016-08-21T00:09:29.533Z,0
2016-08-21T00:10:29.497Z,0
2016-08-21T00:11:29.474Z,0
2016-08-21T00:12:28.737Z,0
2016-08-21T00:13:28.708Z,0
2016-08-21T00:14:28.669Z,0
2016-08-21T00:15:29.341Z,0
2016-08-21T00:16:28.617Z,0
2016-08-21T00:17:28.570Z,0
2016-08-21T00:18:27.857Z,0
2016-08-21T00:19:28.503Z,0
2016-08-21T00:20:27.086Z,0
2016-08-21T00:21:29.141Z,0
2016-08-21T00:22:27.019Z,0
2016-08-21T00:23:28.381Z,0
2016-08-21T00:24:29.047Z,0
2016-08-21T00:25:28.311Z,0
2016-08-21T00:26:28.297Z,0
2016-08-21T00:27:28.247Z,0
2016-08-21T00:28:28.942Z,0
2016-08-21T00:29:27.479Z,0
2016-08-21T00:30:28.856Z,0
2016-08-21T00:31:28.109Z,0
2016-08-21T00:32:28.085Z,0
2016-08-21T00:33:28.749Z,0
2016-08-21T00:34:28.017Z,0
2016-08-21T00:35:27.999Z,0
2016-08-21T00:36:27.265Z,0
2016-08-21T00:37:28.619Z,0
2016-08-21T00:38:28.576Z,0
2016-08-21T00:39:27.173Z,0
2016-08-21T00:40:27.815Z,0
2016-08-21T00:41:27.089Z,0
2016-08-21T00:42:26.370Z,0
2016-08-21T00:43:27.718Z,0
2016-08-21T00:44:26.992Z,0
2016-08-21T00:45:26.954Z,0
2016-08-21T00:46:27.630Z,0
2016-08-21T00:47:27.584Z,0
2016-08-21T00:48:26.857Z,0
2016-08-21T00:49:27.525Z,0
2016-08-21T00:50:27.500Z,0
2016-08-21T00:51:27.463Z,0
2016-08-21T00:52:28.114Z,0
2016-08-21T00:53:28.081Z,0
2016-08-21T00:54:27.358Z,0
2016-08-21T00:55:28.020Z,0
2016-08-21T00:56:27.290Z,0
2016-08-21T00:57:27.264Z,0
2016-08-21T00:58:27.226Z,0
2016-08-21T00:59:27.200Z,0
2016-08-21T01:00:27.857Z,0
2016-08-21T01:01:26.428Z,0
2016-08-21T01:02:27.091Z,0
2016-08-21T01:03:27.058Z,0
2016-08-21T01:04:27.726Z,0
2016-08-21T01:05:26.994Z,0
2016-08-21T01:06:27.658Z,0
2016-08-21T01:07:26.942Z,0
2016-08-21T01:08:26.895Z,0
2016-08-21T01:09:27.560Z,0
2016-08-21T01:10:25.437Z,0
2016-08-21T01:11:26.099Z,0
2016-08-21T01:12:26.073Z,0
2016-08-21T01:13:26.739Z,0
2016-08-21T01:14:26.702Z,0
2016-08-21T01:15:25.964Z,0
2016-08-21T01:16:27.329Z,0
2016-08-21T01:17:25.921Z,0
2016-08-21T01:18:24.481Z,0
2016-08-21T01:19:26.540Z,0
2016-08-21T01:20:27.214Z,0
2016-08-21T01:21:26.472Z,0
2016-08-21T01:22:25.038Z,0
2016-08-21T01:23:27.101Z,0
2016-08-21T01:24:26.371Z,0
2016-08-21T01:25:26.332Z,0
2016-08-21T01:26:26.299Z,0
2016-08-21T01:27:24.873Z,0
2016-08-21T01:28:26.238Z,0
2016-08-21T01:29:25.503Z,0
2016-08-21T01:30:26.168Z,0
2016-08-21T01:31:26.836Z,0
2016-08-21T01:32:26.112Z,0
2016-08-21T01:33:26.090Z,0
2016-08-21T01:34:26.040Z,0
2016-08-21T01:35:26.711Z,0
2016-08-21T01:36:26.680Z,0
2016-08-21T01:37:25.951Z,0
2016-08-21T01:38:26.603Z,0
2016-08-21T01:39:25.187Z,0
2016-08-21T01:40:26.549Z,0
2016-08-21T01:41:25.114Z,0
2016-08-21T01:42:25.080Z,0
2016-08-21T01:43:25.051Z,0
2016-08-21T01:44:24.328Z,0
2016-08-21T01:45:24.978Z,0
2016-08-21T01:46:25.648Z,0
2016-08-21T01:47:24.936Z,0
2016-08-21T01:48:24.886Z,0
2016-08-21T01:49:26.247Z,0
2016-08-21T01:50:24.819Z,0
2016-08-21T01:51:25.485Z,0
2016-08-21T01:52:24.748Z,0
2016-08-21T01:53:25.416Z,0
2016-08-21T01:54:24.679Z,0
2016-08-21T01:55:24.657Z,0
2016-08-21T01:56:25.311Z,0
2016-08-21T01:57:25.981Z,0
2016-08-21T01:58:25.952Z,0
2016-08-21T01:59:25.913Z,0
2016-08-21T02:00:25.877Z,0
2016-08-21T02:01:25.161Z,0
2016-08-21T02:02:24.425Z,0
2016-08-21T02:03:25.081Z,0
2016-08-21T02:04:25.745Z,0
2016-08-21T02:05:25.019Z,0
2016-08-21T02:06:24.995Z,0
2016-08-21T02:07:24.958Z,0
2016-08-21T02:08:24.920Z,0
2016-08-21T02:09:25.588Z,0
2016-08-21T02:10:24.174Z,0
2016-08-21T02:11:25.520Z,0
2016-08-21T02:12:25.478Z,0
2016-08-21T02:13:24.757Z,0
2016-08-21T02:14:23.320Z,0
2016-08-21T02:15:25.381Z,0
2016-08-21T02:16:25.352Z,0
2016-08-21T02:17:24.632Z,0
2016-08-21T02:18:23.894Z,0
2016-08-21T02:19:24.552Z,0
2016-08-21T02:20:23.826Z,0
2016-08-21T02:21:24.482Z,0
2016-08-21T02:22:24.450Z,0
2016-08-21T02:23:23.732Z,0
2016-08-21T02:24:24.391Z,0
2016-08-21T02:25:23.663Z,0
2016-08-21T02:26:24.317Z,0
2016-08-21T02:27:22.894Z,0
2016-08-21T02:28:24.254Z,0
2016-08-21T02:29:23.522Z,0
2016-08-21T02:30:24.194Z,0
2016-08-21T02:31:24.164Z,0
2016-08-21T02:32:24.124Z,0
2016-08-21T02:33:24.796Z,0
2016-08-21T02:34:24.054Z,0
2016-08-21T02:35:24.017Z,0
2016-08-21T02:36:23.983Z,0
2016-08-21T02:37:23.969Z,0
2016-08-21T02:38:24.643Z,0
2016-08-21T02:39:22.497Z,0
2016-08-21T02:40:24.549Z,0
2016-08-21T02:41:24.521Z,0
2016-08-21T02:42:23.785Z,0
2016-08-21T02:43:23.061Z,0
2016-08-21T02:44:23.725Z,0
2016-08-21T02:45:23.689Z,0
2016-08-21T02:46:24.350Z,0
2016-08-21T02:47:24.315Z,0
2016-08-21T02:48:23.592Z,0
2016-08-21T02:49:22.849Z,0
2016-08-21T02:50:22.821Z,0
2016-08-21T02:51:23.484Z,0
2016-08-21T02:52:22.109Z,0
2016-08-21T02:53:23.422Z,0
2016-08-21T02:54:23.389Z,0
2016-08-21T02:55:23.355Z,0
2016-08-21T02:56:23.320Z,0
2016-08-21T02:57:23.983Z,0
2016-08-21T02:58:23.259Z,0
2016-08-21T02:59:23.917Z,0
2016-08-21T03:00:23.892Z,0
2016-08-21T03:01:23.849Z,0
2016-08-21T03:02:23.119Z,0
2016-08-21T03:03:23.088Z,0
2016-08-21T03:04:23.749Z,0
2016-08-21T03:05:23.022Z,0
2016-08-21T03:06:21.592Z,0
2016-08-21T03:07:23.651Z,0
2016-08-21T03:08:23.608Z,0
2016-08-21T03:09:21.494Z,0
2016-08-21T03:10:22.850Z,0
2016-08-21T03:11:22.124Z,0
2016-08-21T03:12:22.785Z,0
2016-08-21T03:13:22.749Z,0
2016-08-21T03:14:22.713Z,0
2016-08-21T03:15:21.303Z,0
2016-08-21T03:16:23.342Z,0
2016-08-21T03:17:23.325Z,0
2016-08-21T03:18:22.578Z,0
2016-08-21T03:19:21.852Z,0
2016-08-21T03:20:23.216Z,0
2016-08-21T03:21:23.172Z,0
2016-08-21T03:22:23.157Z,0
2016-08-21T03:23:23.108Z,0
2016-08-21T03:24:23.075Z,0
2016-08-21T03:25:21.646Z,0
2016-08-21T03:26:20.918Z,0
2016-08-21T03:27:20.888Z,0
2016-08-21T03:28:21.548Z,0
2016-08-21T03:29:22.208Z,0
2016-08-21T03:30:22.179Z,0
2016-08-21T03:31:21.437Z,0
2016-08-21T03:32:22.104Z,0
2016-08-21T03:33:21.374Z,0
2016-08-21T03:34:22.735Z,0
2016-08-21T03:35:22.712Z,0
2016-08-21T03:36:21.981Z,0
2016-08-21T03:37:21.971Z,0
2016-08-21T03:38:21.206Z,0
2016-08-21T03:39:22.568Z,0
2016-08-21T03:40:21.830Z,0
2016-08-21T03:41:22.499Z,0
2016-08-21T03:42:21.765Z,0
2016-08-21T03:43:21.731Z,0
2016-08-21T03:44:21.699Z,0
2016-08-21T03:45:21.661Z,0
2016-08-21T03:46:20.933Z,0
2016-08-21T03:47:22.296Z,0
2016-08-21T03:48:22.259Z,0
2016-08-21T03:49:20.830Z,0
2016-08-21T03:50:21.492Z,0
2016-08-21T03:51:21.461Z,0
2016-08-21T03:52:22.133Z,0
2016-08-21T03:53:22.081Z,0
2016-08-21T03:54:21.352Z,0
2016-08-21T03:55:22.020Z,0
2016-08-21T03:56:21.274Z,0
2016-08-21T03:57:21.963Z,0
2016-08-21T03:58:21.226Z,0
2016-08-21T03:59:21.880Z,0
2016-08-21T04:00:21.851Z,0
2016-08-21T04:01:20.421Z,0
2016-08-21T04:02:21.784Z,0
2016-08-21T04:03:21.745Z,0
2016-08-21T04:04:21.021Z,0
2016-08-21T04:05:19.593Z,0
2016-08-21T04:06:21.639Z,0
2016-08-21T04:07:21.627Z,0
2016-08-21T04:08:20.874Z,0
2016-08-21T04:09:21.540Z,0
2016-08-21T04:10:19.411Z,0
2016-08-21T04:11:19.381Z,0
2016-08-21T04:12:20.045Z,0
2016-08-21T04:13:19.330Z,0
2016-08-21T04:14:20.672Z,0
2016-08-21T04:15:21.335Z,0
2016-08-21T04:16:20.601Z,0
2016-08-21T04:17:21.258Z,0
2016-08-21T04:18:21.234Z,0
2016-08-21T04:19:20.494Z,0
2016-08-21T04:20:19.768Z,0
2016-08-21T04:21:20.433Z,5
2016-08-21T04:22:20.391Z,5
2016-08-21T04:23:19.696Z,5
2016-08-21T04:24:20.328Z,5
2016-08-21T04:25:19.595Z,5
2016-08-21T04:26:20.258Z,5
2016-08-21T04:27:20.230Z,5
2016-08-21T04:28:20.188Z,5
2016-08-21T04:29:19.458Z,5
2016-08-21T04:30:18.036Z,5
2016-08-21T04:31:20.781Z,5
2016-08-21T04:32:19.363Z,5
2016-08-21T04:33:20.714Z,5
2016-08-21T04:34:19.289Z,5
2016-08-21T04:35:19.954Z,5
2016-08-21T04:36:19.921Z,5
2016-08-21T04:37:19.888Z,5
2016-08-21T04:38:20.546Z,5
2016-08-21T04:39:19.116Z,10
2016-08-21T04:40:20.476Z,10
2016-08-21T04:41:19.055Z,10
2016-08-21T04:42:19.718Z,10
2016-08-21T04:43:19.678Z,15
2016-08-21T04:44:20.341Z,15
2016-08-21T04:45:20.306Z,15
2016-08-21T04:46:20.279Z,15
2016-08-21T04:47:18.858Z,10
2016-08-21T04:48:18.110Z,10
2016-08-21T04:49:20.169Z,10
2016-08-21T04:50:20.138Z,10
2016-08-21T04:51:20.104Z,10
2016-08-21T04:52:19.369Z,10
2016-08-21T04:53:17.951Z,10
2016-08-21T04:54:20.024Z,10
2016-08-21T04:55:19.968Z,15
2016-08-21T04:56:17.860Z,15
2016-08-21T04:57:18.497Z,15
2016-08-21T04:58:19.874Z,15
2016-08-21T04:59:19.830Z,15
2016-08-21T05:00:19.107Z,15
2016-08-21T05:01:18.380Z,15
2016-08-21T05:02:19.731Z,15
2016-08-21T05:03:18.997Z,15
2016-08-21T05:04:18.957Z,15
2016-08-21T05:05:19.630Z,15
2016-08-21T05:06:18.903Z,20
2016-08-21T05:07:19.553Z,25
2016-08-21T05:08:19.533Z,25
2016-08-21T05:09:19.493Z,30
2016-08-21T05:10:18.764Z,30
2016-08-21T05:11:18.728Z,30
2016-08-21T05:12:18.696Z,30
2016-08-21T05:13:19.351Z,35
2016-08-21T05:14:19.321Z,35
2016-08-21T05:15:19.300Z,35
2016-08-21T05:16:18.560Z,40
2016-08-21T05:17:18.529Z,45
2016-08-21T05:18:19.187Z,45
2016-08-21T05:19:18.457Z,40
2016-08-21T05:20:18.423Z,40
2016-08-21T05:21:18.391Z,40
2016-08-21T05:22:19.049Z,35
2016-08-21T05:23:18.326Z,30
2016-08-21T05:24:17.595Z,35
2016-08-21T05:25:18.259Z,40
2016-08-21T05:26:18.220Z,40
2016-08-21T05:27:18.198Z,40
2016-08-21T05:28:18.855Z,40
2016-08-21T05:29:18.828Z,35
2016-08-21T05:30:18.101Z,35
2016-08-21T05:31:18.056Z,30
2016-08-21T05:32:17.343Z,30
2016-08-21T05:33:18.680Z,30
2016-08-21T05:34:16.562Z,25
2016-08-21T05:35:18.618Z,25
2016-08-21T05:36:17.890Z,25
2016-08-21T05:37:17.854Z,20
2016-08-21T05:38:18.521Z,20
2016-08-21T05:39:17.797Z,20
2016-08-21T05:40:17.055Z,20
2016-08-21T05:41:17.726Z,20
2016-08-21T05:42:18.385Z,15
2016-08-21T05:43:17.660Z,15
2016-08-21T05:44:16.927Z,20
2016-08-21T05:45:16.896Z,25
2016-08-21T05:46:16.167Z,30
2016-08-21T05:47:17.521Z,35
2016-08-21T05:48:18.184Z,40
2016-08-21T05:49:18.157Z,40
2016-08-21T05:50:17.419Z,40
2016-08-21T05:51:16.695Z,45
2016-08-21T05:52:18.051Z,45
2016-08-21T05:53:17.337Z,45
2016-08-21T05:54:15.896Z,45
2016-08-21T05:55:17.256Z,45
2016-08-21T05:56:17.225Z,45
2016-08-21T05:57:17.193Z,40
2016-08-21T05:58:17.854Z,40
2016-08-21T05:59:17.820Z,40
2016-08-21T06:00:17.095Z,45
2016-08-21T06:01:15.661Z,45
2016-08-21T06:02:17.728Z,45
2016-08-21T06:03:17.698Z,45
2016-08-21T06:04:16.955Z,50
2016-08-21T06:05:16.929Z,55
2016-08-21T06:06:16.897Z,70
2016-08-21T06:07:16.174Z,85
2016-08-21T06:08:16.825Z,90
2016-08-21T06:09:16.809Z,80
2016-08-21T06:10:16.756Z,70
2016-08-21T06:11:16.726Z,70
2016-08-21T06:12:15.997Z,65
2016-08-21T06:13:15.965Z,65
2016-08-21T06:14:15.929Z,65
2016-08-21T06:15:16.595Z,70
2016-08-21T06:16:17.265Z,85
2016-08-21T06:17:15.847Z,95
2016-08-21T06:18:15.798Z,120
2016-08-21T06:19:15.065Z,135
2016-08-21T06:20:16.457Z,145
2016-08-21T06:21:16.399Z,155
2016-08-21T06:22:17.056Z,165
2016-08-21T06:23:15.654Z,170
2016-08-21T06:24:15.613Z,160
2016-08-21T06:25:15.574Z,135
2016-08-21T06:26:16.234Z,120
2016-08-21T06:27:15.502Z,115
2016-08-21T06:28:14.774Z,110
2016-08-21T06:29:16.832Z,105
2016-08-21T06:30:16.106Z,95
2016-08-21T06:31:16.087Z,80
2016-08-21T06:32:16.043Z,65
2016-08-21T06:33:16.011Z,55
2016-08-21T06:34:14.585Z,55
2016-08-21T06:35:16.642Z,60
2016-08-21T06:36:15.911Z,60
2016-08-21T06:37:15.876Z,70
2016-08-21T06:38:15.847Z,80
2016-08-21T06:39:15.116Z,90
2016-08-21T06:40:15.081Z,105
2016-08-21T06:41:16.448Z,125
2016-08-21T06:42:15.030Z,140
2016-08-21T06:43:16.382Z,145
2016-08-21T06:44:15.658Z,160
2016-08-21T06:45:16.315Z,190
2016-08-21T06:46:16.279Z,205
2016-08-21T06:47:16.242Z,205
2016-08-21T06:48:15.520Z,215
2016-08-21T06:49:14.094Z,210
2016-08-21T06:50:16.151Z,190
2016-08-21T06:51:16.128Z,170
2016-08-21T06:52:14.706Z,160
2016-08-21T06:53:15.365Z,145
2016-08-21T06:54:16.017Z,125
2016-08-21T06:55:15.995Z,115
2016-08-21T06:56:15.258Z,105
2016-08-21T06:57:15.928Z,95
2016-08-21T06:58:15.905Z,85
2016-08-21T06:59:15.165Z,90
2016-08-21T07:00:15.145Z,95
2016-08-21T07:01:15.104Z,110
2016-08-21T07:02:15.067Z,120
2016-08-21T07:03:15.742Z,115
2016-08-21T07:04:15.728Z,110
2016-08-21T07:05:14.981Z,115
2016-08-21T07:06:14.952Z,120
2016-08-21T07:07:14.926Z,115
2016-08-21T07:08:14.890Z,100
2016-08-21T07:09:14.856Z,90
2016-08-21T07:10:14.819Z,85
2016-08-21T07:11:15.490Z,80
2016-08-21T07:12:14.070Z,75
2016-08-21T07:13:14.733Z,75
2016-08-21T07:14:15.398Z,70
2016-08-21T07:15:14.663Z,70
2016-08-21T07:16:14.633Z,75
2016-08-21T07:17:14.604Z,75
2016-08-21T07:18:14.576Z,80
2016-08-21T07:19:13.865Z,80
2016-08-21T07:20:14.507Z,75
2016-08-21T07:21:15.173Z,75
2016-08-21T07:22:13.745Z,80
2016-08-21T07:23:13.710Z,85
2016-08-21T07:24:14.379Z,85
2016-08-21T07:25:15.045Z,85
2016-08-21T07:26:15.018Z,90
2016-08-21T07:27:14.281Z,95
2016-08-21T07:28:14.250Z,105
2016-08-21T07:29:13.523Z,105
2016-08-21T07:30:12.789Z,110
2016-08-21T07:31:14.849Z,125
2016-08-21T07:32:13.452Z,145
2016-08-21T07:33:14.803Z,175
2016-08-21T07:34:14.069Z,195
2016-08-21T07:35:14.728Z,195
2016-08-21T07:36:13.320Z,190
2016-08-21T07:37:14.661Z,180
2016-08-21T07:38:13.935Z,190
2016-08-21T07:39:12.511Z,200
2016-08-21T07:40:13.181Z,190
2016-08-21T07:41:13.867Z,185
2016-08-21T07:42:13.108Z,175
2016-08-21T07:43:13.088Z,185
2016-08-21T07:44:13.990Z,190
2016-08-21T07:45:14.421Z,175
2016-08-21T07:46:13.685Z,180
2016-08-21T07:47:14.350Z,190
2016-08-21T07:48:12.928Z,185
2016-08-21T07:49:12.894Z,190
2016-08-21T07:50:12.868Z,175
2016-08-21T07:51:14.225Z,185
2016-08-21T07:52:14.213Z,200
2016-08-21T07:53:13.468Z,210
2016-08-21T07:54:14.133Z,200
2016-08-21T07:55:13.417Z,195
2016-08-21T07:56:14.074Z,185
2016-08-21T07:57:13.355Z,180
2016-08-21T07:58:12.621Z,180
2016-08-21T07:59:13.982Z,180
2016-08-21T08:00:11.863Z,190
2016-08-21T08:01:13.922Z,190
2016-08-21T08:02:13.188Z,185
2016-08-21T08:03:12.470Z,185
2016-08-21T08:04:13.133Z,185
2016-08-21T08:05:13.116Z,190
2016-08-21T08:06:13.761Z,185
2016-08-21T08:07:12.339Z,185
2016-08-21T08:08:13.013Z,190
2016-08-21T08:09:12.971Z,215
2016-08-21T08:10:12.956Z,230
2016-08-21T08:11:12.222Z,240
2016-08-21T08:12:13.587Z,250
2016-08-21T08:13:12.850Z,265
2016-08-21T08:14:13.520Z,285
2016-08-21T08:15:13.493Z,330
2016-08-21T08:16:12.772Z,355
2016-08-21T08:17:12.034Z,315
2016-08-21T08:18:12.713Z,320
2016-08-21T08:19:11.986Z,305
2016-08-21T08:20:13.345Z,285
2016-08-21T08:21:11.223Z,265
2016-08-21T08:22:13.284Z,290
2016-08-21T08:23:12.551Z,270
2016-08-21T08:24:12.521Z,225
2016-08-21T08:25:12.495Z,215
2016-08-21T08:26:13.155Z,210
2016-08-21T08:27:12.730Z,230
2016-08-21T08:28:13.110Z,240
2016-08-21T08:29:13.069Z,195
2016-08-21T08:30:13.040Z,180
2016-08-21T08:31:13.013Z,210
2016-08-21T08:32:12.278Z,210
2016-08-21T08:33:12.278Z,230
2016-08-21T08:34:11.548Z,210
2016-08-21T08:35:11.498Z,220
2016-08-21T08:36:12.169Z,245
2016-08-21T08:37:11.447Z,230
2016-08-21T08:38:12.805Z,220
2016-08-21T08:39:12.776Z,275
2016-08-21T08:40:12.757Z,310
2016-08-21T08:41:11.314Z,380
2016-08-21T08:42:11.303Z,465
2016-08-21T08:43:12.665Z,450
2016-08-21T08:44:11.930Z,530
2016-08-21T08:45:12.604Z,525
2016-08-21T08:46:11.872Z,330
2016-08-21T08:47:11.845Z,420
2016-08-21T08:48:12.746Z,490
2016-08-21T08:49:11.785Z,715
2016-08-21T08:50:11.057Z,1310
2016-08-21T08:51:11.744Z,795
2016-08-21T08:52:11.701Z,855
2016-08-21T08:53:11.679Z,645
2016-08-21T08:54:12.344Z,550
2016-08-21T08:55:12.312Z,580
2016-08-21T08:56:11.594Z,465
2016-08-21T08:57:11.566Z,420
2016-08-21T08:58:10.831Z,375
2016-08-21T08:59:12.197Z,345
2016-08-21T09:00:11.481Z,345
2016-08-21T09:01:11.447Z,315
2016-08-21T09:02:12.120Z,335
2016-08-21T09:03:10.694Z,380
2016-08-21T09:04:11.369Z,480
2016-08-21T09:05:12.049Z,720
2016-08-21T09:06:11.998Z,485
2016-08-21T09:07:11.280Z,545
2016-08-21T09:08:10.570Z,650
2016-08-21T09:09:09.827Z,715
2016-08-21T09:10:11.894Z,770
2016-08-21T09:11:11.862Z,885
2016-08-21T09:12:11.143Z,1025
2016-08-21T09:13:11.110Z,2345
2016-08-21T09:14:11.083Z,1080
2016-08-21T09:15:11.766Z,1330
2016-08-21T09:16:11.033Z,1020
2016-08-21T09:17:11.000Z,1140
2016-08-21T09:18:10.286Z,1075
2016-08-21T09:19:11.651Z,1240
2016-08-21T09:20:09.538Z,980
2016-08-21T09:21:10.203Z,820
2016-08-21T09:22:10.879Z,795
2016-08-21T09:23:10.152Z,815
2016-08-21T09:24:09.441Z,1645
2016-08-21T09:25:10.106Z,830
2016-08-21T09:26:11.498Z,895
2016-08-21T09:27:11.455Z,930
2016-08-21T09:28:10.041Z,1550
2016-08-21T09:29:10.009Z,490
2016-08-21T09:30:10.690Z,420
2016-08-21T09:31:09.957Z,390
2016-08-21T09:32:10.640Z,395
2016-08-21T09:33:11.402Z,390
2016-08-21T09:34:10.591Z,390
2016-08-21T09:35:09.873Z,440
2016-08-21T09:36:10.542Z,450
2016-08-21T09:37:09.824Z,460
2016-08-21T09:38:10.481Z,545
2016-08-21T09:39:09.767Z,830
2016-08-21T09:40:10.439Z,620
2016-08-21T09:41:10.420Z,530
2016-08-21T09:42:11.103Z,1030
2016-08-21T09:43:11.071Z,460
2016-08-21T09:44:10.356Z,420
2016-08-21T09:45:10.329Z,390
2016-08-21T09:46:09.613Z,425
2016-08-21T09:47:10.258Z,455
2016-08-21T09:48:09.552Z,420
2016-08-21T09:49:10.215Z,375
2016-08-21T09:50:10.186Z,380
2016-08-21T09:51:09.468Z,470
2016-08-21T09:52:10.143Z,525
2016-08-21T09:53:10.120Z,620
2016-08-21T09:54:09.387Z,670
2016-08-21T09:55:10.765Z,680
2016-08-21T09:56:09.358Z,565
2016-08-21T09:57:10.017Z,485
2016-08-21T09:58:10.682Z,575
2016-08-21T09:59:09.955Z,445
2016-08-21T10:00:09.228Z,340
2016-08-21T10:01:09.907Z,300
2016-08-21T10:02:09.877Z,370
2016-08-21T10:03:09.860Z,400
2016-08-21T10:04:09.828Z,450
2016-08-21T10:05:09.810Z,430
2016-08-21T10:06:10.476Z,460
2016-08-21T10:07:09.760Z,450
2016-08-21T10:08:10.418Z,375
2016-08-21T10:09:09.694Z,380
2016-08-21T10:10:10.367Z,560
2016-08-21T10:11:08.942Z,825
2016-08-21T10:12:08.914Z,775
2016-08-21T10:13:10.291Z,580
2016-08-21T10:14:09.564Z,460
2016-08-21T10:15:09.552Z,1515
2016-08-21T10:16:08.810Z,830
2016-08-21T10:17:10.181Z,870
2016-08-21T10:18:10.153Z,1825
2016-08-21T10:19:08.751Z,930
2016-08-21T10:20:09.426Z,575
2016-08-21T10:21:09.381Z,595
2016-08-21T10:22:09.668Z,640
2016-08-21T10:23:08.638Z,470
2016-08-21T10:24:10.009Z,410
2016-08-21T10:25:09.285Z,480
2016-08-21T10:26:09.264Z,525
2016-08-21T10:27:09.242Z,505
2016-08-21T10:28:09.222Z,2740
2016-08-21T10:29:09.190Z,1405
2016-08-21T10:30:09.168Z,1015
2016-08-21T10:31:09.130Z,980
2016-08-21T10:32:08.420Z,920
2016-08-21T10:33:09.094Z,1735
2016-08-21T10:34:08.376Z,820
2016-08-21T10:35:09.045Z,795
2016-08-21T10:36:09.712Z,740
2016-08-21T10:37:08.988Z,745
2016-08-21T10:38:08.964Z,805
2016-08-21T10:39:08.244Z,710
2016-08-21T10:40:08.234Z,715
2016-08-21T10:41:08.894Z,720
2016-08-21T10:42:09.562Z,1110
2016-08-21T10:43:08.850Z,720
2016-08-21T10:44:08.825Z,675
2016-08-21T10:45:08.107Z,575
2016-08-21T10:46:06.684Z,800
2016-08-21T10:47:08.747Z,885
2016-08-21T10:48:08.029Z,3010
2016-08-21T10:49:06.633Z,1815
2016-08-21T10:50:09.379Z,2920
2016-08-21T10:51:09.345Z,825
2016-08-21T10:52:08.641Z,2155
2016-08-21T10:53:07.218Z,1465
2016-08-21T10:54:07.895Z,3330
2016-08-21T10:55:07.869Z,3260
2016-08-21T10:56:08.542Z,3045
2016-08-21T10:57:09.232Z,2940
2016-08-21T10:58:07.796Z,2165
2016-08-21T10:59:08.487Z,1205
2016-08-21T11:00:08.447Z,1340
2016-08-21T11:01:09.149Z,1465
2016-08-21T11:02:09.105Z,1400
2016-08-21T11:03:08.386Z,1505
2016-08-21T11:04:06.975Z,1290
2016-08-21T11:05:09.039Z,755
2016-08-21T11:06:09.041Z,635
2016-08-21T11:07:07.607Z,610
2016-08-21T11:08:06.916Z,610
2016-08-21T11:09:08.970Z,630
2016-08-21T11:10:07.559Z,590
2016-08-21T11:11:08.934Z,585
2016-08-21T11:12:06.812Z,600
2016-08-21T11:13:08.886Z,1235
2016-08-21T11:14:08.867Z,2290
2016-08-21T11:15:08.853Z,2530
2016-08-21T11:16:08.134Z,2625
2016-08-21T11:17:08.110Z,2630
2016-08-21T11:18:08.096Z,2490
2016-08-21T11:19:08.788Z,2505
2016-08-21T11:20:08.749Z,2485
2016-08-21T11:21:08.731Z,2135
2016-08-21T11:22:08.008Z,945
2016-08-21T11:23:08.690Z,415
2016-08-21T11:24:06.577Z,395
2016-08-21T11:25:08.635Z,375
2016-08-21T11:26:07.231Z,360
2016-08-21T11:27:08.611Z,345
2016-08-21T11:28:07.890Z,345
2016-08-21T11:29:07.872Z,355
2016-08-21T11:30:07.842Z,340
2016-08-21T11:31:07.820Z,330
2016-08-21T11:32:07.805Z,330
2016-08-21T11:33:07.789Z,355
2016-08-21T11:34:08.465Z,380
2016-08-21T11:35:07.750Z,340
2016-08-21T11:36:08.401Z,305
2016-08-21T11:37:08.385Z,295
2016-08-21T11:38:07.655Z,265
2016-08-21T11:39:07.640Z,295
2016-08-21T11:40:06.931Z,255
2016-08-21T11:41:08.298Z,335
2016-08-21T11:42:07.587Z,405
2016-08-21T11:43:07.548Z,415
2016-08-21T11:44:08.215Z,420
2016-08-21T11:45:06.801Z,385
2016-08-21T11:46:06.078Z,415
2016-08-21T11:47:08.144Z,465
2016-08-21T11:48:08.126Z,455
2016-08-21T11:49:06.701Z,490
2016-08-21T11:50:07.362Z,470
2016-08-21T11:51:07.374Z,430
2016-08-21T11:52:07.316Z,385
2016-08-21T11:53:07.298Z,350
2016-08-21T11:54:06.573Z,325
2016-08-21T11:55:06.556Z,305
2016-08-21T11:56:06.530Z,290
2016-08-21T11:57:07.196Z,285
2016-08-21T11:58:06.482Z,295
2016-08-21T11:59:07.836Z,295
2016-08-21T12:00:07.117Z,280
2016-08-21T12:01:07.785Z,260
2016-08-21T12:02:07.078Z,260
2016-08-21T12:03:07.739Z,255
2016-08-21T12:04:07.026Z,275
2016-08-21T12:05:06.987Z,290
2016-08-21T12:06:07.666Z,345
2016-08-21T12:07:05.540Z,375
2016-08-21T12:08:06.214Z,405
2016-08-21T12:09:06.881Z,450
2016-08-21T12:10:06.862Z,470
2016-08-21T12:11:06.833Z,445
2016-08-21T12:12:06.811Z,420
2016-08-21T12:13:06.093Z,445
2016-08-21T12:14:05.373Z,445
2016-08-21T12:15:06.031Z,455
2016-08-21T12:16:07.396Z,475
2016-08-21T12:17:06.672Z,510
2016-08-21T12:18:07.344Z,560
2016-08-21T12:19:07.317Z,540
2016-08-21T12:20:06.592Z,510
2016-08-21T12:21:06.565Z,520
2016-08-21T12:22:05.853Z,505
2016-08-21T12:23:07.209Z,470
2016-08-21T12:24:05.094Z,435
2016-08-21T12:25:05.765Z,390
2016-08-21T12:26:07.135Z,370
2016-08-21T12:27:07.117Z,410
2016-08-21T12:28:07.078Z,425
2016-08-21T12:29:05.677Z,405
2016-08-21T12:30:04.942Z,435
2016-08-21T12:31:05.607Z,420
2016-08-21T12:32:06.285Z,385
2016-08-21T12:33:06.257Z,325
2016-08-21T12:34:06.930Z,305
2016-08-21T12:35:05.500Z,320
2016-08-21T12:36:06.174Z,370
2016-08-21T12:37:06.858Z,390
2016-08-21T12:38:06.123Z,375
2016-08-21T12:39:05.405Z,375
2016-08-21T12:40:05.380Z,390
2016-08-21T12:41:06.044Z,410
2016-08-21T12:42:06.025Z,380
2016-08-21T12:43:06.053Z,395
2016-08-21T12:44:06.678Z,410
2016-08-21T12:45:05.943Z,415
2016-08-21T12:46:05.214Z,425
2016-08-21T12:47:04.503Z,445
2016-08-21T12:48:06.556Z,430
2016-08-21T12:49:05.841Z,440
2016-08-21T12:50:06.509Z,420
2016-08-21T12:51:05.088Z,380
2016-08-21T12:52:05.775Z,365
2016-08-21T12:53:05.050Z,350
2016-08-21T12:54:05.030Z,370
2016-08-21T12:55:05.677Z,360
2016-08-21T12:56:06.353Z,380
2016-08-21T12:57:04.929Z,370
2016-08-21T12:58:04.908Z,335
2016-08-21T12:59:05.583Z,335
2016-08-21T13:00:04.861Z,340
2016-08-21T13:01:06.233Z,370
2016-08-21T13:02:05.498Z,400
2016-08-21T13:03:05.471Z,375
2016-08-21T13:04:04.744Z,350
2016-08-21T13:05:05.424Z,375
2016-08-21T13:06:04.695Z,370
2016-08-21T13:07:05.384Z,340
2016-08-21T13:08:06.056Z,280
2016-08-21T13:09:04.622Z,225
2016-08-21T13:10:04.590Z,210
2016-08-21T13:11:05.957Z,215
2016-08-21T13:12:05.935Z,215
2016-08-21T13:13:04.509Z,210
2016-08-21T13:14:05.889Z,215
2016-08-21T13:15:04.458Z,215
2016-08-21T13:16:05.125Z,190
2016-08-21T13:17:04.400Z,180
2016-08-21T13:18:05.072Z,180
2016-08-21T13:19:05.739Z,180
2016-08-21T13:20:04.332Z,185
2016-08-21T13:21:05.686Z,185
2016-08-21T13:22:04.962Z,185
2016-08-21T13:23:04.952Z,180
2016-08-21T13:24:04.929Z,215
2016-08-21T13:25:03.495Z,235
2016-08-21T13:26:03.473Z,240
2016-08-21T13:27:04.828Z,225
2016-08-21T13:28:04.112Z,215
2016-08-21T13:29:04.779Z,210
2016-08-21T13:30:05.452Z,205
2016-08-21T13:31:05.415Z,205
2016-08-21T13:32:04.700Z,190
2016-08-21T13:33:05.358Z,185
2016-08-21T13:34:05.336Z,185
2016-08-21T13:35:04.616Z,175
2016-08-21T13:36:03.887Z,170
2016-08-21T13:37:03.866Z,165
2016-08-21T13:38:03.832Z,160
2016-08-21T13:39:04.510Z,160
2016-08-21T13:40:04.474Z,160
2016-08-21T13:41:04.450Z,160
2016-08-21T13:42:04.417Z,155
2016-08-21T13:43:05.095Z,155
2016-08-21T13:44:05.072Z,155
2016-08-21T13:45:04.335Z,155
2016-08-21T13:46:03.614Z,155
2016-08-21T13:47:04.276Z,155
2016-08-21T13:48:03.561Z,155
2016-08-21T13:49:04.260Z,165
2016-08-21T13:50:04.208Z,170
2016-08-21T13:51:04.168Z,190
2016-08-21T13:52:02.746Z,195
2016-08-21T13:53:04.115Z,180
2016-08-21T13:54:03.386Z,180
2016-08-21T13:55:04.750Z,180
2016-08-21T13:56:04.030Z,175
2016-08-21T13:57:03.999Z,165
2016-08-21T13:58:04.670Z,165
2016-08-21T13:59:04.650Z,170
2016-08-21T14:00:03.913Z,165
2016-08-21T14:01:03.883Z,165
2016-08-21T14:02:04.555Z,165
2016-08-21T14:03:03.826Z,165
2016-08-21T14:04:04.499Z,165
2016-08-21T14:05:03.772Z,155
2016-08-21T14:06:04.456Z,150
2016-08-21T14:07:03.028Z,145
2016-08-21T14:08:02.993Z,145